sensor_id;sensor_type;location;lat;lon;timestamp;temperature;humidity
3053;DHT22;1536;51.098;6.414;2022-07-21T00:01:46;22.40;99.90
3053;DHT22;1536;51.098;6.414;2022-07-21T00:04:13;22.40;99.90
3053;DHT22;1536;51.098;6.414;2022-07-21T00:06:41;22.40;99.90
3053;DHT22;1536;51.098;6.414;2022-07-21T00:09:08;22.40;99.90
3053;DHT22;1536;51.098;6.414;2022-07-21T00:11:35;22.30;99.90
3053;DHT22;1536;51.098;6.414;2022-07-21T00:14:03;22.40;99.90
3053;DHT22;1536;51.098;6.414;2022-07-21T00:16:31;22.40;99.90
3053;DHT22;1536;51.098;6.414;2022-07-21T00:18:58;22.40;99.90
3053;DHT22;1536;51.098;6.414;2022-07-21T00:21:25;22.40;99.90
3053;DHT22;1536;51.098;6.414;2022-07-21T00:23:52;22.40;99.90
3053;DHT22;1536;51.098;6.414;2022-07-21T00:26:19;22.40;99.90
3053;DHT22;1536;51.098;6.414;2022-07-21T00:28:46;22.40;99.90
3053;DHT22;1536;51.098;6.414;2022-07-21T00:31:13;22.40;99.90
3053;DHT22;1536;51.098;6.414;2022-07-21T00:33:41;22.40;99.90
3053;DHT22;1536;51.098;6.414;2022-07-21T00:36:08;22.40;99.90
3053;DHT22;1536;51.098;6.414;2022-07-21T00:38:35;22.30;99.90
3053;DHT22;1536;51.098;6.414;2022-07-21T00:41:02;22.30;99.90
3053;DHT22;1536;51.098;6.414;2022-07-21T00:43:29;22.30;99.90
3053;DHT22;1536;51.098;6.414;2022-07-21T00:45:56;22.30;99.90
3053;DHT22;1536;51.098;6.414;2022-07-21T00:48:22;22.30;99.90
3053;DHT22;1536;51.098;6.414;2022-07-21T00:50:52;22.30;99.90
3053;DHT22;1536;51.098;6.414;2022-07-21T00:53:19;22.30;99.90
3053;DHT22;1536;51.098;6.414;2022-07-21T00:55:46;22.30;99.90
3053;DHT22;1536;51.098;6.414;2022-07-21T00:58:13;22.30;99.90
3053;DHT22;1536;51.098;6.414;2022-07-21T01:00:40;22.40;99.90
3053;DHT22;1536;51.098;6.414;2022-07-21T01:03:07;22.40;99.90
3053;DHT22;1536;51.098;6.414;2022-07-21T01:05:35;22.30;99.90
3053;DHT22;1536;51.098;6.414;2022-07-21T01:08:03;22.40;99.90
3053;DHT22;1536;51.098;6.414;2022-07-21T01:10:31;22.40;99.90
3053;DHT22;1536;51.098;6.414;2022-07-21T01:12:58;22.40;99.90
3053;DHT22;1536;51.098;6.414;2022-07-21T01:15:25;22.40;99.90
3053;DHT22;1536;51.098;6.414;2022-07-21T01:17:52;22.40;99.90
3053;DHT22;1536;51.098;6.414;2022-07-21T01:20:20;22.30;99.90
3053;DHT22;1536;51.098;6.414;2022-07-21T01:22:50;22.30;99.90
3053;DHT22;1536;51.098;6.414;2022-07-21T01:25:18;22.40;99.90
3053;DHT22;1536;51.098;6.414;2022-07-21T01:27:45;22.40;99.90
3053;DHT22;1536;51.098;6.414;2022-07-21T01:30:14;22.30;99.90
3053;DHT22;1536;51.098;6.414;2022-07-21T01:32:56;22.30;99.90
3053;DHT22;1536;51.098;6.414;2022-07-21T01:35:22;22.40;99.90
3053;DHT22;1536;51.098;6.414;2022-07-21T01:37:51;22.40;99.90
3053;DHT22;1536;51.098;6.414;2022-07-21T01:40:17;22.40;99.90
3053;DHT22;1536;51.098;6.414;2022-07-21T01:43:02;22.40;99.90
3053;DHT22;1536;51.098;6.414;2022-07-21T01:45:29;22.40;99.90
3053;DHT22;1536;51.098;6.414;2022-07-21T01:47:56;22.40;99.90
3053;DHT22;1536;51.098;6.414;2022-07-21T01:50:23;22.40;99.90
3053;DHT22;1536;51.098;6.414;2022-07-21T01:52:54;22.40;99.90
3053;DHT22;1536;51.098;6.414;2022-07-21T01:55:22;22.40;99.90
3053;DHT22;1536;51.098;6.414;2022-07-21T01:57:48;22.40;99.90
3053;DHT22;1536;51.098;6.414;2022-07-21T02:00:16;22.40;99.90
3053;DHT22;1536;51.098;6.414;2022-07-21T02:02:43;22.40;99.90
3053;DHT22;1536;51.098;6.414;2022-07-21T02:05:10;22.40;99.90
3053;DHT22;1536;51.098;6.414;2022-07-21T02:07:36;22.40;99.90
3053;DHT22;1536;51.098;6.414;2022-07-21T02:10:06;22.40;99.90
3053;DHT22;1536;51.098;6.414;2022-07-21T02:12:32;22.40;99.90
3053;DHT22;1536;51.098;6.414;2022-07-21T02:14:59;22.40;99.90
3053;DHT22;1536;51.098;6.414;2022-07-21T02:17:26;22.40;99.90
3053;DHT22;1536;51.098;6.414;2022-07-21T02:19:53;22.40;99.90
3053;DHT22;1536;51.098;6.414;2022-07-21T02:22:19;22.30;99.90
3053;DHT22;1536;51.098;6.414;2022-07-21T02:24:46;22.30;99.90
3053;DHT22;1536;51.098;6.414;2022-07-21T02:27:17;22.30;99.90
3053;DHT22;1536;51.098;6.414;2022-07-21T02:29:43;22.30;99.90
3053;DHT22;1536;51.098;6.414;2022-07-21T02:32:10;22.30;99.90
3053;DHT22;1536;51.098;6.414;2022-07-21T02:34:37;22.30;99.90
3053;DHT22;1536;51.098;6.414;2022-07-21T02:37:04;22.30;99.90
3053;DHT22;1536;51.098;6.414;2022-07-21T02:39:31;22.30;99.90
3053;DHT22;1536;51.098;6.414;2022-07-21T02:41:57;22.40;99.90
3053;DHT22;1536;51.098;6.414;2022-07-21T02:44:26;22.40;99.90
3053;DHT22;1536;51.098;6.414;2022-07-21T02:46:54;22.30;99.90
3053;DHT22;1536;51.098;6.414;2022-07-21T02:49:21;22.40;99.90
3053;DHT22;1536;51.098;6.414;2022-07-21T02:51:48;22.30;99.90
3053;DHT22;1536;51.098;6.414;2022-07-21T02:54:15;22.40;99.90
3053;DHT22;1536;51.098;6.414;2022-07-21T02:56:41;22.30;99.90
3053;DHT22;1536;51.098;6.414;2022-07-21T02:59:08;22.30;99.90
3053;DHT22;1536;51.098;6.414;2022-07-21T03:01:36;22.30;99.90
3053;DHT22;1536;51.098;6.414;2022-07-21T03:04:03;22.20;99.90
3053;DHT22;1536;51.098;6.414;2022-07-21T03:06:30;22.20;99.90
3053;DHT22;1536;51.098;6.414;2022-07-21T03:08:57;22.20;99.90
3053;DHT22;1536;51.098;6.414;2022-07-21T03:11:24;22.20;99.90
3053;DHT22;1536;51.098;6.414;2022-07-21T03:13:50;22.20;99.90
3053;DHT22;1536;51.098;6.414;2022-07-21T03:16:17;22.20;99.90
3053;DHT22;1536;51.098;6.414;2022-07-21T03:18:45;22.20;99.90
3053;DHT22;1536;51.098;6.414;2022-07-21T03:21:12;22.30;99.90
3053;DHT22;1536;51.098;6.414;2022-07-21T03:23:39;22.30;99.90
3053;DHT22;1536;51.098;6.414;2022-07-21T03:26:11;22.30;99.90
3053;DHT22;1536;51.098;6.414;2022-07-21T03:28:37;22.30;99.90
3053;DHT22;1536;51.098;6.414;2022-07-21T03:31:04;22.30;99.90
3053;DHT22;1536;51.098;6.414;2022-07-21T03:33:32;22.30;99.90
3053;DHT22;1536;51.098;6.414;2022-07-21T03:36:00;22.30;99.90
3053;DHT22;1536;51.098;6.414;2022-07-21T03:38:27;22.30;99.90
3053;DHT22;1536;51.098;6.414;2022-07-21T03:40:54;22.30;99.90
3053;DHT22;1536;51.098;6.414;2022-07-21T03:43:21;22.30;99.90
3053;DHT22;1536;51.098;6.414;2022-07-21T03:45:48;22.20;99.90
3053;DHT22;1536;51.098;6.414;2022-07-21T03:48:14;22.20;99.90
3053;DHT22;1536;51.098;6.414;2022-07-21T03:50:41;22.20;99.90
3053;DHT22;1536;51.098;6.414;2022-07-21T03:53:10;22.30;99.90
3053;DHT22;1536;51.098;6.414;2022-07-21T03:55:37;22.30;99.90
3053;DHT22;1536;51.098;6.414;2022-07-21T03:58:05;22.20;99.90
3053;DHT22;1536;51.098;6.414;2022-07-21T04:00:33;22.20;99.90
3053;DHT22;1536;51.098;6.414;2022-07-21T04:03:01;22.20;99.90
3053;DHT22;1536;51.098;6.414;2022-07-21T04:05:28;22.20;99.90
3053;DHT22;1536;51.098;6.414;2022-07-21T04:07:56;22.20;99.90
3053;DHT22;1536;51.098;6.414;2022-07-21T04:10:26;22.20;99.90
3053;DHT22;1536;51.098;6.414;2022-07-21T04:12:54;22.10;99.90
3053;DHT22;1536;51.098;6.414;2022-07-21T04:15:22;22.20;99.90
3053;DHT22;1536;51.098;6.414;2022-07-21T04:17:49;22.20;99.90
3053;DHT22;1536;51.098;6.414;2022-07-21T04:20:16;22.10;99.90
3053;DHT22;1536;51.098;6.414;2022-07-21T04:22:43;22.20;99.90
3053;DHT22;1536;51.098;6.414;2022-07-21T04:25:11;22.10;99.90
3053;DHT22;1536;51.098;6.414;2022-07-21T04:27:39;22.10;99.90
3053;DHT22;1536;51.098;6.414;2022-07-21T04:30:09;22.10;99.90
3053;DHT22;1536;51.098;6.414;2022-07-21T04:32:36;22.10;99.90
3053;DHT22;1536;51.098;6.414;2022-07-21T04:35:04;22.10;99.90
3053;DHT22;1536;51.098;6.414;2022-07-21T04:37:32;22.20;99.90
3053;DHT22;1536;51.098;6.414;2022-07-21T04:39:59;22.20;99.90
3053;DHT22;1536;51.098;6.414;2022-07-21T04:42:27;22.20;99.90
3053;DHT22;1536;51.098;6.414;2022-07-21T04:44:55;22.20;99.90
3053;DHT22;1536;51.098;6.414;2022-07-21T04:47:22;22.20;99.90
3053;DHT22;1536;51.098;6.414;2022-07-21T04:49:49;22.20;99.90
3053;DHT22;1536;51.098;6.414;2022-07-21T04:52:18;22.20;99.90
3053;DHT22;1536;51.098;6.414;2022-07-21T04:54:45;22.20;99.90
3053;DHT22;1536;51.098;6.414;2022-07-21T04:57:12;22.20;99.90
3053;DHT22;1536;51.098;6.414;2022-07-21T04:59:39;22.20;99.90
3053;DHT22;1536;51.098;6.414;2022-07-21T05:02:07;22.20;99.90
3053;DHT22;1536;51.098;6.414;2022-07-21T05:04:34;22.20;99.90
3053;DHT22;1536;51.098;6.414;2022-07-21T05:07:01;22.20;99.90
3053;DHT22;1536;51.098;6.414;2022-07-21T05:09:27;22.20;99.90
3053;DHT22;1536;51.098;6.414;2022-07-21T05:11:54;22.20;99.90
3053;DHT22;1536;51.098;6.414;2022-07-21T05:14:21;22.20;99.90
3053;DHT22;1536;51.098;6.414;2022-07-21T05:16:48;22.20;99.90
3053;DHT22;1536;51.098;6.414;2022-07-21T05:19:16;22.10;99.90
3053;DHT22;1536;51.098;6.414;2022-07-21T05:21:42;22.10;99.90
3053;DHT22;1536;51.098;6.414;2022-07-21T05:24:10;22.10;99.90
3053;DHT22;1536;51.098;6.414;2022-07-21T05:26:37;22.10;99.90
3053;DHT22;1536;51.098;6.414;2022-07-21T05:29:04;22.10;99.90
3053;DHT22;1536;51.098;6.414;2022-07-21T05:31:31;22.20;99.90
3053;DHT22;1536;51.098;6.414;2022-07-21T05:33:58;22.20;99.90
3053;DHT22;1536;51.098;6.414;2022-07-21T05:36:26;22.20;99.90
3053;DHT22;1536;51.098;6.414;2022-07-21T05:38:52;22.20;99.90
3053;DHT22;1536;51.098;6.414;2022-07-21T05:41:19;22.30;99.90
3053;DHT22;1536;51.098;6.414;2022-07-21T05:43:47;22.30;99.90
3053;DHT22;1536;51.098;6.414;2022-07-21T05:46:14;22.40;99.90
3053;DHT22;1536;51.098;6.414;2022-07-21T05:48:41;22.40;99.90
3053;DHT22;1536;51.098;6.414;2022-07-21T05:51:07;22.50;99.90
3053;DHT22;1536;51.098;6.414;2022-07-21T05:53:35;22.50;99.90
3053;DHT22;1536;51.098;6.414;2022-07-21T05:56:02;22.50;99.90
3053;DHT22;1536;51.098;6.414;2022-07-21T05:58:29;22.50;99.90
3053;DHT22;1536;51.098;6.414;2022-07-21T06:00:56;22.50;99.90
3053;DHT22;1536;51.098;6.414;2022-07-21T06:03:35;22.50;99.90
3053;DHT22;1536;51.098;6.414;2022-07-21T06:06:03;22.50;99.90
3053;DHT22;1536;51.098;6.414;2022-07-21T06:08:30;22.50;99.90
3053;DHT22;1536;51.098;6.414;2022-07-21T06:10:58;22.40;99.90
3053;DHT22;1536;51.098;6.414;2022-07-21T06:13:25;22.50;99.90
3053;DHT22;1536;51.098;6.414;2022-07-21T06:15:52;22.40;99.90
3053;DHT22;1536;51.098;6.414;2022-07-21T06:18:19;22.50;99.90
3053;DHT22;1536;51.098;6.414;2022-07-21T06:20:46;22.50;99.90
3053;DHT22;1536;51.098;6.414;2022-07-21T06:23:13;22.60;99.90
3053;DHT22;1536;51.098;6.414;2022-07-21T06:25:40;22.60;99.90
3053;DHT22;1536;51.098;6.414;2022-07-21T06:28:08;22.70;99.90
3053;DHT22;1536;51.098;6.414;2022-07-21T06:30:35;22.70;99.90
3053;DHT22;1536;51.098;6.414;2022-07-21T06:33:02;22.70;99.90
3053;DHT22;1536;51.098;6.414;2022-07-21T06:35:29;22.70;99.90
3053;DHT22;1536;51.098;6.414;2022-07-21T06:37:56;22.70;99.90
3053;DHT22;1536;51.098;6.414;2022-07-21T06:40:23;22.80;99.90
3053;DHT22;1536;51.098;6.414;2022-07-21T06:42:50;22.80;99.90
3053;DHT22;1536;51.098;6.414;2022-07-21T06:45:18;22.80;99.90
3053;DHT22;1536;51.098;6.414;2022-07-21T06:47:45;22.80;99.90
3053;DHT22;1536;51.098;6.414;2022-07-21T06:50:11;22.80;99.90
3053;DHT22;1536;51.098;6.414;2022-07-21T06:52:38;22.90;99.90
3053;DHT22;1536;51.098;6.414;2022-07-21T06:55:07;22.90;99.90
3053;DHT22;1536;51.098;6.414;2022-07-21T06:57:35;23.00;99.90
3053;DHT22;1536;51.098;6.414;2022-07-21T07:00:03;23.00;99.90
3053;DHT22;1536;51.098;6.414;2022-07-21T07:02:31;23.10;99.90
3053;DHT22;1536;51.098;6.414;2022-07-21T07:04:58;23.10;99.90
3053;DHT22;1536;51.098;6.414;2022-07-21T07:07:25;23.20;99.90
3053;DHT22;1536;51.098;6.414;2022-07-21T07:09:52;23.20;99.90
3053;DHT22;1536;51.098;6.414;2022-07-21T07:12:18;23.20;99.90
3053;DHT22;1536;51.098;6.414;2022-07-21T07:14:46;23.20;99.90
3053;DHT22;1536;51.098;6.414;2022-07-21T07:17:16;23.20;99.90
3053;DHT22;1536;51.098;6.414;2022-07-21T07:19:45;23.20;99.90
3053;DHT22;1536;51.098;6.414;2022-07-21T07:22:12;23.30;99.90
3053;DHT22;1536;51.098;6.414;2022-07-21T07:24:39;23.30;99.90
3053;DHT22;1536;51.098;6.414;2022-07-21T07:27:06;23.30;99.90
3053;DHT22;1536;51.098;6.414;2022-07-21T07:29:33;23.40;99.90
3053;DHT22;1536;51.098;6.414;2022-07-21T07:32:00;23.40;99.90
3053;DHT22;1536;51.098;6.414;2022-07-21T07:34:27;23.40;99.90
3053;DHT22;1536;51.098;6.414;2022-07-21T07:36:55;23.40;99.90
3053;DHT22;1536;51.098;6.414;2022-07-21T07:39:22;23.50;99.90
3053;DHT22;1536;51.098;6.414;2022-07-21T07:41:50;23.50;99.90
3053;DHT22;1536;51.098;6.414;2022-07-21T07:44:19;23.50;99.90
3053;DHT22;1536;51.098;6.414;2022-07-21T07:46:49;23.50;99.90
3053;DHT22;1536;51.098;6.414;2022-07-21T07:49:18;23.50;99.90
3053;DHT22;1536;51.098;6.414;2022-07-21T07:51:45;23.50;99.90
3053;DHT22;1536;51.098;6.414;2022-07-21T07:54:13;23.50;99.90
3053;DHT22;1536;51.098;6.414;2022-07-21T07:56:40;23.50;99.90
3053;DHT22;1536;51.098;6.414;2022-07-21T07:59:07;23.50;99.90
3053;DHT22;1536;51.098;6.414;2022-07-21T08:01:34;23.50;99.90
3053;DHT22;1536;51.098;6.414;2022-07-21T08:04:01;23.60;99.90
3053;DHT22;1536;51.098;6.414;2022-07-21T08:06:28;23.60;99.90
3053;DHT22;1536;51.098;6.414;2022-07-21T08:08:55;23.60;99.90
3053;DHT22;1536;51.098;6.414;2022-07-21T08:11:23;23.60;99.90
3053;DHT22;1536;51.098;6.414;2022-07-21T08:13:50;23.60;99.90
3053;DHT22;1536;51.098;6.414;2022-07-21T08:16:17;23.60;99.90
3053;DHT22;1536;51.098;6.414;2022-07-21T08:18:44;23.70;99.90
3053;DHT22;1536;51.098;6.414;2022-07-21T08:21:11;23.80;99.90
3053;DHT22;1536;51.098;6.414;2022-07-21T08:23:38;23.80;99.90
3053;DHT22;1536;51.098;6.414;2022-07-21T08:26:05;23.90;99.90
3053;DHT22;1536;51.098;6.414;2022-07-21T08:28:33;23.90;99.90
3053;DHT22;1536;51.098;6.414;2022-07-21T08:31:02;23.90;99.90
3053;DHT22;1536;51.098;6.414;2022-07-21T08:33:29;23.90;99.90
3053;DHT22;1536;51.098;6.414;2022-07-21T08:35:56;24.00;99.90
3053;DHT22;1536;51.098;6.414;2022-07-21T08:38:22;24.00;99.90
3053;DHT22;1536;51.098;6.414;2022-07-21T08:40:49;24.10;99.90
3053;DHT22;1536;51.098;6.414;2022-07-21T08:43:16;24.10;99.90
3053;DHT22;1536;51.098;6.414;2022-07-21T08:45:45;24.10;99.90
3053;DHT22;1536;51.098;6.414;2022-07-21T08:48:12;24.10;99.90
3053;DHT22;1536;51.098;6.414;2022-07-21T08:50:44;24.20;99.90
3053;DHT22;1536;51.098;6.414;2022-07-21T08:53:11;24.20;99.90
3053;DHT22;1536;51.098;6.414;2022-07-21T08:55:38;24.20;99.90
3053;DHT22;1536;51.098;6.414;2022-07-21T08:58:08;24.20;99.90
3053;DHT22;1536;51.098;6.414;2022-07-21T09:00:35;24.20;99.90
3053;DHT22;1536;51.098;6.414;2022-07-21T09:03:11;24.10;99.90
3053;DHT22;1536;51.098;6.414;2022-07-21T09:05:38;24.10;99.90
3053;DHT22;1536;51.098;6.414;2022-07-21T09:08:05;24.10;99.90
3053;DHT22;1536;51.098;6.414;2022-07-21T09:10:33;24.10;99.90
3053;DHT22;1536;51.098;6.414;2022-07-21T09:13:03;24.20;99.90
3053;DHT22;1536;51.098;6.414;2022-07-21T09:15:31;24.20;99.90
3053;DHT22;1536;51.098;6.414;2022-07-21T09:18:10;24.20;99.90
3053;DHT22;1536;51.098;6.414;2022-07-21T09:20:39;24.20;99.90
3053;DHT22;1536;51.098;6.414;2022-07-21T09:23:08;24.10;99.90
3053;DHT22;1536;51.098;6.414;2022-07-21T09:25:38;24.10;99.90
3053;DHT22;1536;51.098;6.414;2022-07-21T09:28:09;24.10;99.90
3053;DHT22;1536;51.098;6.414;2022-07-21T09:30:55;24.00;99.90
3053;DHT22;1536;51.098;6.414;2022-07-21T09:33:27;24.00;99.90
3053;DHT22;1536;51.098;6.414;2022-07-21T09:36:03;23.90;99.90
3053;DHT22;1536;51.098;6.414;2022-07-21T09:38:31;23.80;99.90
3053;DHT22;1536;51.098;6.414;2022-07-21T09:41:07;23.80;99.90
3053;DHT22;1536;51.098;6.414;2022-07-21T09:43:37;23.70;99.90
3053;DHT22;1536;51.098;6.414;2022-07-21T09:46:09;23.70;99.90
3053;DHT22;1536;51.098;6.414;2022-07-21T09:48:39;23.70;99.90
3053;DHT22;1536;51.098;6.414;2022-07-21T09:51:27;23.60;99.90
3053;DHT22;1536;51.098;6.414;2022-07-21T09:53:56;23.60;99.90
3053;DHT22;1536;51.098;6.414;2022-07-21T09:56:25;23.60;99.90
3053;DHT22;1536;51.098;6.414;2022-07-21T09:58:55;23.60;99.90
3053;DHT22;1536;51.098;6.414;2022-07-21T10:01:22;23.50;99.90
3053;DHT22;1536;51.098;6.414;2022-07-21T10:03:52;23.60;99.90
3053;DHT22;1536;51.098;6.414;2022-07-21T10:06:20;23.60;99.90
3053;DHT22;1536;51.098;6.414;2022-07-21T10:08:49;23.60;99.90
3053;DHT22;1536;51.098;6.414;2022-07-21T10:11:16;23.60;99.90
3053;DHT22;1536;51.098;6.414;2022-07-21T10:13:45;23.60;99.90
3053;DHT22;1536;51.098;6.414;2022-07-21T10:16:13;23.60;99.90
3053;DHT22;1536;51.098;6.414;2022-07-21T10:19:02;23.60;99.90
3053;DHT22;1536;51.098;6.414;2022-07-21T10:21:41;23.60;99.90
3053;DHT22;1536;51.098;6.414;2022-07-21T10:24:10;23.60;99.90
3053;DHT22;1536;51.098;6.414;2022-07-21T10:26:39;23.50;99.90
3053;DHT22;1536;51.098;6.414;2022-07-21T10:32:33;23.50;99.90
3053;DHT22;1536;51.098;6.414;2022-07-21T10:35:27;23.40;99.90
3053;DHT22;1536;51.098;6.414;2022-07-21T10:37:55;23.40;99.90
3053;DHT22;1536;51.098;6.414;2022-07-21T10:40:36;23.30;99.90
3053;DHT22;1536;51.098;6.414;2022-07-21T10:43:37;23.30;99.90
3053;DHT22;1536;51.098;6.414;2022-07-21T10:46:33;23.20;99.90
3053;DHT22;1536;51.098;6.414;2022-07-21T10:49:02;23.20;99.90
3053;DHT22;1536;51.098;6.414;2022-07-21T10:51:33;23.10;99.90
3053;DHT22;1536;51.098;6.414;2022-07-21T10:54:24;23.10;99.90
3053;DHT22;1536;51.098;6.414;2022-07-21T10:57:28;23.10;99.90
3053;DHT22;1536;51.098;6.414;2022-07-21T11:00:21;23.10;99.90
3053;DHT22;1536;51.098;6.414;2022-07-21T11:02:49;23.00;99.90
3053;DHT22;1536;51.098;6.414;2022-07-21T11:05:17;23.00;99.90
3053;DHT22;1536;51.098;6.414;2022-07-21T11:08:14;22.90;99.90
3053;DHT22;1536;51.098;6.414;2022-07-21T11:10:43;22.90;99.90
3053;DHT22;1536;51.098;6.414;2022-07-21T11:13:11;22.90;99.90
3053;DHT22;1536;51.098;6.414;2022-07-21T11:18:31;22.80;99.90
3053;DHT22;1536;51.098;6.414;2022-07-21T11:21:19;22.80;99.90
3053;DHT22;1536;51.098;6.414;2022-07-21T11:23:48;22.70;99.90
3053;DHT22;1536;51.098;6.414;2022-07-21T11:26:16;22.70;99.90
3053;DHT22;1536;51.098;6.414;2022-07-21T11:28:45;22.60;99.90
3053;DHT22;1536;51.098;6.414;2022-07-21T11:31:17;22.60;99.90
3053;DHT22;1536;51.098;6.414;2022-07-21T11:33:47;22.60;99.90
3053;DHT22;1536;51.098;6.414;2022-07-21T11:36:28;22.50;99.90
3053;DHT22;1536;51.098;6.414;2022-07-21T11:39:02;22.50;99.90
3053;DHT22;1536;51.098;6.414;2022-07-21T11:41:30;22.40;99.90
3053;DHT22;1536;51.098;6.414;2022-07-21T11:43:57;22.40;99.90
3053;DHT22;1536;51.098;6.414;2022-07-21T11:46:24;22.40;99.90
3053;DHT22;1536;51.098;6.414;2022-07-21T11:49:03;22.40;99.90
3053;DHT22;1536;51.098;6.414;2022-07-21T11:51:30;22.40;99.90
3053;DHT22;1536;51.098;6.414;2022-07-21T11:53:59;22.30;99.90
3053;DHT22;1536;51.098;6.414;2022-07-21T11:56:25;22.20;99.90
3053;DHT22;1536;51.098;6.414;2022-07-21T11:59:08;22.20;99.90
3053;DHT22;1536;51.098;6.414;2022-07-21T12:01:51;22.20;99.90
3053;DHT22;1536;51.098;6.414;2022-07-21T12:04:30;22.10;99.90
3053;DHT22;1536;51.098;6.414;2022-07-21T12:06:59;22.10;99.90
3053;DHT22;1536;51.098;6.414;2022-07-21T12:09:27;22.00;99.90
3053;DHT22;1536;51.098;6.414;2022-07-21T12:11:54;22.00;99.90
3053;DHT22;1536;51.098;6.414;2022-07-21T12:14:38;21.90;99.90
3053;DHT22;1536;51.098;6.414;2022-07-21T12:17:05;21.90;99.90
3053;DHT22;1536;51.098;6.414;2022-07-21T12:19:32;21.80;99.90
3053;DHT22;1536;51.098;6.414;2022-07-21T12:21:59;21.80;99.90
3053;DHT22;1536;51.098;6.414;2022-07-21T12:24:52;21.80;99.90
3053;DHT22;1536;51.098;6.414;2022-07-21T12:27:19;21.70;99.90
3053;DHT22;1536;51.098;6.414;2022-07-21T12:29:47;21.70;99.90
3053;DHT22;1536;51.098;6.414;2022-07-21T12:32:14;21.70;99.90
3053;DHT22;1536;51.098;6.414;2022-07-21T12:34:52;21.70;99.90
3053;DHT22;1536;51.098;6.414;2022-07-21T12:37:20;21.60;99.90
3053;DHT22;1536;51.098;6.414;2022-07-21T12:40:03;21.70;99.90
3053;DHT22;1536;51.098;6.414;2022-07-21T12:42:32;21.70;99.90
3053;DHT22;1536;51.098;6.414;2022-07-21T12:45:11;21.70;99.90
3053;DHT22;1536;51.098;6.414;2022-07-21T12:47:38;21.70;99.90
3053;DHT22;1536;51.098;6.414;2022-07-21T12:50:07;21.70;99.90
3053;DHT22;1536;51.098;6.414;2022-07-21T12:52:34;21.70;99.90
3053;DHT22;1536;51.098;6.414;2022-07-21T12:55:04;21.80;99.90
3053;DHT22;1536;51.098;6.414;2022-07-21T12:57:32;21.80;99.90
3053;DHT22;1536;51.098;6.414;2022-07-21T12:59:59;21.80;99.90
3053;DHT22;1536;51.098;6.414;2022-07-21T13:02:27;21.90;99.90
3053;DHT22;1536;51.098;6.414;2022-07-21T13:04:54;22.00;99.90
3053;DHT22;1536;51.098;6.414;2022-07-21T13:07:22;22.00;99.90
3053;DHT22;1536;51.098;6.414;2022-07-21T13:09:49;22.00;99.90
3053;DHT22;1536;51.098;6.414;2022-07-21T13:12:17;22.00;99.90
3053;DHT22;1536;51.098;6.414;2022-07-21T13:14:44;22.00;99.90
3053;DHT22;1536;51.098;6.414;2022-07-21T13:17:11;22.00;99.90
3053;DHT22;1536;51.098;6.414;2022-07-21T13:19:37;22.00;99.90
3053;DHT22;1536;51.098;6.414;2022-07-21T13:22:04;22.00;99.90
3053;DHT22;1536;51.098;6.414;2022-07-21T13:24:31;22.00;99.90
3053;DHT22;1536;51.098;6.414;2022-07-21T13:26:58;22.00;99.90
3053;DHT22;1536;51.098;6.414;2022-07-21T13:29:26;22.00;99.90
3053;DHT22;1536;51.098;6.414;2022-07-21T13:31:53;22.00;99.90
3053;DHT22;1536;51.098;6.414;2022-07-21T13:34:19;22.00;99.90
3053;DHT22;1536;51.098;6.414;2022-07-21T13:36:47;21.90;99.90
3053;DHT22;1536;51.098;6.414;2022-07-21T13:39:14;22.00;99.90
3053;DHT22;1536;51.098;6.414;2022-07-21T13:41:41;22.00;99.90
3053;DHT22;1536;51.098;6.414;2022-07-21T13:44:08;22.00;99.90
3053;DHT22;1536;51.098;6.414;2022-07-21T13:46:36;22.00;99.90
3053;DHT22;1536;51.098;6.414;2022-07-21T13:49:03;22.00;99.90
3053;DHT22;1536;51.098;6.414;2022-07-21T13:51:30;22.00;99.90
3053;DHT22;1536;51.098;6.414;2022-07-21T13:53:56;22.00;99.90
3053;DHT22;1536;51.098;6.414;2022-07-21T13:56:23;21.90;99.90
3053;DHT22;1536;51.098;6.414;2022-07-21T13:58:50;21.90;99.90
3053;DHT22;1536;51.098;6.414;2022-07-21T14:01:17;21.90;99.90
3053;DHT22;1536;51.098;6.414;2022-07-21T14:03:46;21.90;99.90
3053;DHT22;1536;51.098;6.414;2022-07-21T14:06:13;21.90;99.90
3053;DHT22;1536;51.098;6.414;2022-07-21T14:08:42;21.90;99.90
3053;DHT22;1536;51.098;6.414;2022-07-21T14:11:09;21.90;99.90
3053;DHT22;1536;51.098;6.414;2022-07-21T14:13:36;21.90;99.90
3053;DHT22;1536;51.098;6.414;2022-07-21T14:16:03;21.90;99.90
3053;DHT22;1536;51.098;6.414;2022-07-21T14:18:30;21.90;99.90
3053;DHT22;1536;51.098;6.414;2022-07-21T14:20:59;21.90;99.90
3053;DHT22;1536;51.098;6.414;2022-07-21T14:23:26;22.00;99.90
3053;DHT22;1536;51.098;6.414;2022-07-21T14:25:53;22.00;99.90
3053;DHT22;1536;51.098;6.414;2022-07-21T14:28:19;22.00;99.90
3053;DHT22;1536;51.098;6.414;2022-07-21T14:30:46;22.00;99.90
3053;DHT22;1536;51.098;6.414;2022-07-21T14:33:12;22.00;99.90
3053;DHT22;1536;51.098;6.414;2022-07-21T14:35:39;22.00;99.90
3053;DHT22;1536;51.098;6.414;2022-07-21T14:38:08;22.10;99.90
3053;DHT22;1536;51.098;6.414;2022-07-21T14:40:35;22.10;99.90
3053;DHT22;1536;51.098;6.414;2022-07-21T14:43:02;22.10;99.90
3053;DHT22;1536;51.098;6.414;2022-07-21T14:45:29;22.20;99.90
3053;DHT22;1536;51.098;6.414;2022-07-21T14:47:57;22.20;99.90
3053;DHT22;1536;51.098;6.414;2022-07-21T14:50:25;22.30;99.90
3053;DHT22;1536;51.098;6.414;2022-07-21T14:52:52;22.40;99.90
3053;DHT22;1536;51.098;6.414;2022-07-21T14:55:20;22.40;99.90
3053;DHT22;1536;51.098;6.414;2022-07-21T14:57:48;22.40;99.90
3053;DHT22;1536;51.098;6.414;2022-07-21T15:00:16;22.40;99.90
3053;DHT22;1536;51.098;6.414;2022-07-21T15:02:42;22.40;99.90
3053;DHT22;1536;51.098;6.414;2022-07-21T15:05:09;22.40;99.90
3053;DHT22;1536;51.098;6.414;2022-07-21T15:07:36;22.40;99.90
3053;DHT22;1536;51.098;6.414;2022-07-21T15:10:04;22.40;99.90
3053;DHT22;1536;51.098;6.414;2022-07-21T15:12:32;22.40;99.90
3053;DHT22;1536;51.098;6.414;2022-07-21T15:14:59;22.40;99.90
3053;DHT22;1536;51.098;6.414;2022-07-21T15:17:25;22.40;99.90
3053;DHT22;1536;51.098;6.414;2022-07-21T15:19:54;22.40;99.90
3053;DHT22;1536;51.098;6.414;2022-07-21T15:22:24;22.30;99.90
3053;DHT22;1536;51.098;6.414;2022-07-21T15:24:54;22.30;99.90
3053;DHT22;1536;51.098;6.414;2022-07-21T15:27:21;22.30;99.90
3053;DHT22;1536;51.098;6.414;2022-07-21T15:29:49;22.30;99.90
3053;DHT22;1536;51.098;6.414;2022-07-21T15:32:16;22.20;99.90
3053;DHT22;1536;51.098;6.414;2022-07-21T15:34:43;22.20;99.90
3053;DHT22;1536;51.098;6.414;2022-07-21T15:37:10;22.10;99.90
3053;DHT22;1536;51.098;6.414;2022-07-21T15:39:37;22.10;99.90
3053;DHT22;1536;51.098;6.414;2022-07-21T15:42:06;22.10;99.90
3053;DHT22;1536;51.098;6.414;2022-07-21T15:44:34;22.00;99.90
3053;DHT22;1536;51.098;6.414;2022-07-21T15:47:02;22.00;99.90
3053;DHT22;1536;51.098;6.414;2022-07-21T15:49:29;22.00;99.90
3053;DHT22;1536;51.098;6.414;2022-07-21T15:51:56;21.90;99.90
3053;DHT22;1536;51.098;6.414;2022-07-21T15:54:25;21.90;99.90
3053;DHT22;1536;51.098;6.414;2022-07-21T15:56:52;22.00;99.90
3053;DHT22;1536;51.098;6.414;2022-07-21T15:59:19;22.00;99.90
3053;DHT22;1536;51.098;6.414;2022-07-21T16:02:05;22.00;99.90
3053;DHT22;1536;51.098;6.414;2022-07-21T16:04:32;22.00;99.90
3053;DHT22;1536;51.098;6.414;2022-07-21T16:07:00;22.00;99.90
3053;DHT22;1536;51.098;6.414;2022-07-21T16:09:27;21.90;99.90
3053;DHT22;1536;51.098;6.414;2022-07-21T16:11:54;21.90;99.90
3053;DHT22;1536;51.098;6.414;2022-07-21T16:14:21;21.90;99.90
3053;DHT22;1536;51.098;6.414;2022-07-21T16:16:48;21.90;99.90
3053;DHT22;1536;51.098;6.414;2022-07-21T16:19:16;22.00;99.90